createdAt,value
2023-08-07T00:02:12.450Z,19.31
2023-08-07T00:04:39.542Z,19.59
2023-08-07T00:07:06.918Z,19.59
2023-08-07T00:09:33.916Z,19.60
2023-08-07T00:12:01.017Z,19.54
2023-08-07T00:14:28.048Z,19.55
2023-08-07T00:16:55.003Z,19.46
2023-08-07T00:19:22.114Z,19.51
2023-08-07T00:21:49.224Z,19.44
2023-08-07T00:24:16.236Z,19.43
2023-08-07T00:26:43.248Z,19.43
2023-08-07T00:29:10.328Z,19.35
2023-08-07T00:31:37.501Z,19.08
2023-08-07T00:34:05.292Z,19.25
2023-08-07T00:36:36.000Z,18.94
2023-08-07T00:39:06.870Z,19.24
2023-08-07T00:41:33.993Z,19.26
2023-08-07T00:44:01.439Z,18.81
2023-08-07T00:46:30.244Z,19.21
2023-08-07T00:48:57.995Z,19.17
2023-08-07T00:51:25.427Z,19.23
2023-08-07T00:53:52.581Z,18.59
2023-08-07T00:56:20.123Z,18.95
2023-08-07T00:58:47.612Z,19.11
2023-08-07T01:01:14.771Z,18.89
2023-08-07T01:03:41.869Z,19.02
2023-08-07T01:06:09.365Z,19.01
2023-08-07T01:08:36.999Z,19.09
2023-08-07T01:11:09.506Z,19.01
2023-08-07T01:13:48.353Z,18.77
2023-08-07T01:16:30.102Z,19.00
2023-08-07T01:18:58.618Z,18.88
2023-08-07T01:21:25.661Z,18.87
2023-08-07T01:23:53.573Z,18.87
2023-08-07T01:26:22.075Z,18.70
2023-08-07T01:29:02.580Z,18.88
2023-08-07T01:31:33.118Z,18.82
2023-08-07T01:34:05.955Z,18.76
2023-08-07T01:36:34.656Z,18.74
2023-08-07T01:39:03.282Z,18.67
2023-08-07T01:41:31.604Z,18.63
2023-08-07T01:43:59.342Z,18.67
2023-08-07T01:46:26.580Z,18.26
2023-08-07T01:48:54.769Z,18.53
2023-08-07T01:51:22.683Z,18.18
2023-08-07T01:53:54.030Z,18.49
2023-08-07T01:56:21.182Z,18.35
2023-08-07T01:58:48.644Z,18.41
2023-08-07T02:01:15.904Z,18.13
2023-08-07T02:03:43.006Z,18.18
2023-08-07T02:06:10.074Z,18.22
2023-08-07T02:08:37.444Z,18.21
2023-08-07T02:11:04.736Z,18.19
2023-08-07T02:13:32.090Z,18.06
2023-08-07T02:15:59.672Z,17.87
2023-08-07T02:18:27.427Z,18.03
2023-08-07T02:20:55.089Z,18.05
2023-08-07T02:23:22.339Z,17.65
2023-08-07T02:25:50.434Z,17.49
2023-08-07T02:28:17.947Z,17.81
2023-08-07T02:30:55.178Z,17.56
2023-08-07T02:33:22.428Z,17.73
2023-08-07T02:35:51.331Z,17.76
2023-08-07T02:38:18.859Z,17.19
2023-08-07T02:40:47.691Z,17.64
2023-08-07T02:43:14.962Z,17.62
2023-08-07T02:45:42.323Z,17.33
2023-08-07T02:48:09.653Z,17.32
2023-08-07T02:50:37.347Z,17.58
2023-08-07T02:53:04.699Z,17.37
2023-08-07T02:55:31.939Z,17.42
2023-08-07T02:57:59.398Z,17.17
2023-08-07T03:00:26.668Z,16.95
2023-08-07T03:02:53.996Z,17.24
2023-08-07T03:05:21.448Z,17.27
2023-08-07T03:07:48.780Z,17.15
2023-08-07T03:10:16.000Z,17.04
2023-08-07T03:12:43.268Z,16.90
2023-08-07T03:15:10.618Z,17.13
2023-08-07T03:17:37.893Z,17.10
2023-08-07T03:20:05.748Z,17.06
2023-08-07T03:22:32.946Z,16.93
2023-08-07T03:25:00.271Z,16.90
2023-08-07T03:27:27.824Z,16.87
2023-08-07T03:29:55.184Z,16.69
2023-08-07T03:32:26.457Z,16.79
2023-08-07T03:34:53.644Z,16.86
2023-08-07T03:37:21.372Z,16.92
2023-08-07T03:39:49.362Z,16.66
2023-08-07T03:42:16.802Z,16.75
2023-08-07T03:44:45.796Z,16.62
2023-08-07T03:47:13.105Z,16.37
2023-08-07T03:49:40.307Z,16.63
2023-08-07T03:52:08.380Z,16.51
2023-08-07T03:54:35.692Z,16.53
2023-08-07T03:57:02.729Z,16.62
2023-08-07T03:59:29.698Z,16.55
2023-08-07T04:01:56.702Z,16.87
2023-08-07T04:04:23.792Z,16.78
2023-08-07T04:06:51.383Z,16.59
2023-08-07T04:09:18.427Z,16.54
2023-08-07T04:11:45.478Z,16.38
2023-08-07T04:14:12.753Z,16.30
2023-08-07T04:16:40.042Z,16.28
2023-08-07T04:19:08.645Z,16.31
2023-08-07T04:21:35.686Z,16.29
2023-08-07T04:24:09.135Z,16.54
2023-08-07T04:26:36.135Z,16.53
2023-08-07T04:29:03.554Z,16.43
2023-08-07T04:31:32.595Z,16.59
2023-08-07T04:33:59.857Z,16.62
2023-08-07T04:36:26.900Z,16.54
2023-08-07T04:38:54.061Z,16.67
2023-08-07T04:41:21.058Z,16.69
2023-08-07T04:43:49.380Z,16.73
2023-08-07T04:46:16.527Z,16.45
2023-08-07T04:48:43.608Z,16.72
2023-08-07T04:51:10.654Z,16.70
2023-08-07T04:53:37.878Z,16.74
2023-08-07T04:56:05.196Z,16.73
2023-08-07T04:58:32.280Z,16.71
2023-08-07T05:01:00.139Z,16.91
2023-08-07T05:03:28.387Z,16.62
2023-08-07T05:06:02.837Z,16.95
2023-08-07T05:08:30.069Z,16.79
2023-08-07T05:10:57.410Z,16.77
2023-08-07T05:13:24.525Z,16.94
2023-08-07T05:15:51.666Z,17.15
2023-08-07T05:18:19.191Z,17.17
2023-08-07T05:20:46.282Z,17.44
2023-08-07T05:23:13.337Z,17.44
2023-08-07T05:25:40.457Z,17.43
2023-08-07T05:28:07.611Z,17.46
2023-08-07T05:30:34.734Z,17.78
2023-08-07T05:33:01.982Z,17.71
2023-08-07T05:35:30.547Z,17.79
2023-08-07T05:37:57.636Z,18.07
2023-08-07T05:40:24.751Z,17.78
2023-08-07T05:42:51.835Z,18.36
2023-08-07T05:45:18.956Z,17.72
2023-08-07T05:47:46.181Z,17.56
2023-08-07T05:50:13.453Z,18.38
2023-08-07T05:52:40.630Z,18.90
2023-08-07T05:55:09.321Z,18.51
2023-08-07T05:57:36.659Z,18.71
2023-08-07T06:00:04.738Z,18.78
2023-08-07T06:02:39.384Z,19.03
2023-08-07T06:05:07.138Z,19.20
2023-08-07T06:07:34.391Z,19.39
2023-08-07T06:10:01.688Z,19.44
2023-08-07T06:12:28.903Z,19.71
2023-08-07T06:14:56.172Z,19.43
2023-08-07T06:17:23.254Z,19.87
2023-08-07T06:19:50.472Z,20.19
2023-08-07T06:22:20.648Z,20.13
2023-08-07T06:24:47.883Z,20.29
2023-08-07T06:27:15.201Z,20.33
2023-08-07T06:29:42.363Z,20.32
2023-08-07T06:32:11.995Z,20.73
2023-08-07T06:34:39.354Z,20.73
2023-08-07T06:37:10.987Z,21.06
2023-08-07T06:39:38.085Z,21.15
2023-08-07T06:42:05.517Z,20.91
2023-08-07T06:44:36.037Z,21.45
2023-08-07T06:47:03.197Z,21.45
2023-08-07T06:49:32.956Z,21.31
2023-08-07T06:52:00.193Z,21.88
2023-08-07T06:54:27.418Z,21.77
2023-08-07T06:56:54.426Z,21.80
2023-08-07T06:59:21.652Z,21.83
2023-08-07T07:01:49.440Z,21.59
2023-08-07T07:04:16.773Z,21.82
2023-08-07T07:06:43.948Z,22.21
2023-08-07T07:09:11.203Z,22.10
2023-08-07T07:11:39.224Z,22.33
2023-08-07T07:14:06.350Z,22.19
2023-08-07T07:16:33.739Z,22.71
2023-08-07T07:19:03.399Z,22.77
2023-08-07T07:21:30.571Z,22.75
2023-08-07T07:23:57.594Z,23.05
2023-08-07T07:26:24.666Z,23.16
2023-08-07T07:28:52.648Z,22.95
2023-08-07T07:31:20.130Z,23.21
2023-08-07T07:33:48.327Z,23.50
2023-08-07T07:36:17.822Z,23.24
2023-08-07T07:38:47.835Z,23.77
2023-08-07T07:41:18.707Z,23.81
2023-08-07T07:43:45.868Z,23.77
2023-08-07T07:46:12.972Z,24.04
2023-08-07T07:48:40.099Z,23.78
2023-08-07T07:51:07.410Z,23.77
2023-08-07T07:53:34.473Z,24.22
2023-08-07T07:56:01.931Z,23.90
2023-08-07T07:58:29.030Z,24.10
2023-08-07T08:00:56.300Z,24.48
2023-08-07T08:03:25.508Z,24.60
2023-08-07T08:05:53.585Z,24.60
2023-08-07T08:08:20.932Z,24.66
2023-08-07T08:10:49.099Z,24.26
2023-08-07T08:13:17.211Z,24.36
2023-08-07T08:15:45.463Z,24.41
2023-08-07T08:18:13.403Z,24.81
2023-08-07T08:20:40.795Z,24.67
2023-08-07T08:23:08.113Z,24.91
2023-08-07T08:25:35.395Z,24.87
2023-08-07T08:28:02.606Z,24.57
2023-08-07T08:30:30.304Z,24.74
2023-08-07T08:32:57.848Z,25.03
2023-08-07T08:35:25.291Z,25.04
2023-08-07T08:37:52.463Z,25.13
2023-08-07T08:40:20.643Z,25.13
2023-08-07T08:42:48.203Z,24.79
2023-08-07T08:45:16.526Z,24.86
2023-08-07T08:47:47.676Z,25.36
2023-08-07T08:50:16.120Z,25.09
2023-08-07T08:52:45.921Z,25.33
2023-08-07T08:55:14.560Z,25.46
2023-08-07T08:57:43.093Z,25.62
2023-08-07T09:00:22.552Z,25.57
2023-08-07T09:02:51.026Z,24.57
2023-08-07T09:05:20.996Z,25.77
2023-08-07T09:07:51.793Z,25.71
2023-08-07T09:10:25.402Z,25.83
2023-08-07T09:13:02.468Z,25.99
2023-08-07T09:15:31.782Z,26.15
2023-08-07T09:17:59.928Z,26.10
2023-08-07T09:20:27.457Z,26.05
2023-08-07T09:22:54.653Z,26.37
2023-08-07T09:25:32.802Z,26.34
2023-08-07T09:28:05.984Z,26.43
2023-08-07T09:30:35.616Z,26.43
2023-08-07T09:33:03.680Z,26.53
2023-08-07T09:35:33.372Z,26.17
2023-08-07T09:38:00.608Z,26.51
2023-08-07T09:40:28.224Z,26.41
2023-08-07T09:42:55.845Z,26.80
2023-08-07T09:45:24.652Z,26.55
2023-08-07T09:48:02.469Z,27.00
2023-08-07T09:50:30.816Z,26.80
2023-08-07T09:52:59.450Z,26.93
2023-08-07T09:55:27.446Z,26.05
2023-08-07T09:57:55.343Z,26.73
2023-08-07T10:00:22.868Z,27.08
2023-08-07T10:02:53.002Z,26.96
2023-08-07T10:05:20.447Z,27.14
2023-08-07T10:07:48.648Z,27.09
2023-08-07T10:10:15.972Z,26.86
2023-08-07T10:12:43.309Z,27.21
2023-08-07T10:15:10.991Z,27.16
2023-08-07T10:17:38.201Z,26.98
2023-08-07T10:20:06.304Z,27.55
2023-08-07T10:22:35.053Z,27.61
2023-08-07T10:25:04.195Z,27.46
2023-08-07T10:27:36.530Z,27.45
2023-08-07T10:30:07.764Z,27.37
2023-08-07T10:32:36.030Z,27.90
2023-08-07T10:35:07.157Z,27.81
2023-08-07T10:37:46.092Z,28.20
2023-08-07T10:40:14.374Z,27.79
2023-08-07T10:43:21.064Z,28.13
2023-08-07T10:45:48.130Z,28.20
2023-08-07T10:48:19.562Z,28.19
2023-08-07T10:50:58.715Z,28.16
2023-08-07T10:53:32.966Z,28.47
2023-08-07T10:56:04.026Z,28.56
2023-08-07T10:58:33.693Z,28.19
2023-08-07T11:01:28.655Z,28.77
2023-08-07T11:04:01.835Z,28.81
2023-08-07T11:06:32.847Z,28.39
2023-08-07T11:09:10.866Z,28.54
2023-08-07T11:11:42.050Z,28.81
2023-08-07T11:14:19.898Z,28.72
2023-08-07T11:16:48.540Z,28.73
2023-08-07T11:19:17.339Z,28.93
2023-08-07T11:21:44.913Z,28.89
2023-08-07T11:24:17.393Z,28.39
2023-08-07T11:26:46.090Z,28.15
2023-08-07T11:29:17.882Z,28.45
2023-08-07T11:31:45.010Z,28.58
2023-08-07T11:34:12.573Z,28.45
2023-08-07T11:36:44.039Z,28.38
2023-08-07T11:39:11.880Z,28.15
2023-08-07T11:41:39.033Z,28.56
2023-08-07T11:44:08.791Z,28.42
2023-08-07T11:46:36.821Z,28.36
2023-08-07T11:49:05.464Z,28.79
2023-08-07T11:51:33.407Z,28.82
2023-08-07T11:54:00.844Z,28.42
2023-08-07T11:56:29.237Z,28.89
2023-08-07T11:58:56.412Z,29.01
2023-08-07T12:01:25.603Z,28.38
2023-08-07T12:03:57.918Z,28.10
2023-08-07T12:06:26.436Z,28.45
2023-08-07T12:08:57.873Z,29.07
2023-08-07T12:11:25.932Z,29.02
2023-08-07T12:13:53.315Z,28.89
2023-08-07T12:16:20.698Z,28.99
2023-08-07T12:18:49.603Z,28.94
2023-08-07T12:21:22.278Z,28.76
2023-08-07T12:23:49.351Z,28.90
2023-08-07T12:26:17.010Z,28.85
2023-08-07T12:28:44.488Z,28.84
2023-08-07T12:31:11.797Z,28.73
2023-08-07T12:33:39.063Z,28.64
2023-08-07T12:36:20.224Z,28.82
2023-08-07T12:38:48.062Z,28.85
2023-08-07T12:43:45.987Z,29.14
2023-08-07T12:48:45.551Z,29.19
2023-08-07T12:51:12.697Z,28.72
2023-08-07T12:53:39.919Z,28.82
2023-08-07T12:56:07.220Z,29.17
2023-08-07T12:58:35.229Z,29.31
2023-08-07T13:01:02.549Z,29.40
2023-08-07T13:03:29.841Z,29.32
2023-08-07T13:05:57.082Z,29.18
2023-08-07T13:08:32.232Z,29.23
2023-08-07T13:10:59.253Z,28.99
2023-08-07T13:13:29.301Z,28.73
2023-08-07T13:15:56.333Z,28.81
2023-08-07T13:18:27.026Z,28.22
2023-08-07T13:20:54.083Z,28.59
2023-08-07T13:23:21.222Z,28.79
2023-08-07T13:25:48.341Z,29.12
2023-08-07T13:28:15.660Z,28.93
2023-08-07T13:30:43.029Z,28.98
2023-08-07T13:33:10.126Z,28.88
2023-08-07T13:35:37.321Z,28.87
2023-08-07T13:38:09.225Z,28.90
2023-08-07T13:40:36.588Z,29.10
2023-08-07T13:43:09.126Z,29.16
2023-08-07T13:45:37.224Z,28.76
2023-08-07T13:48:05.470Z,28.87
2023-08-07T13:50:32.855Z,28.68
2023-08-07T13:53:12.936Z,29.03
2023-08-07T13:55:42.588Z,29.05
2023-08-07T13:58:11.227Z,28.84
2023-08-07T14:00:38.445Z,28.58
2023-08-07T14:03:05.791Z,28.65
2023-08-07T14:05:33.036Z,28.25
2023-08-07T14:08:00.255Z,28.76
2023-08-07T14:10:27.392Z,28.36
2023-08-07T14:12:54.574Z,28.48
2023-08-07T14:15:21.831Z,28.17
2023-08-07T14:17:49.034Z,28.27
2023-08-07T14:20:16.624Z,28.34
2023-08-07T14:22:44.457Z,28.61
2023-08-07T14:25:11.689Z,28.20
2023-08-07T14:27:38.814Z,28.22
2023-08-07T14:30:06.605Z,28.27
2023-08-07T14:32:33.794Z,27.88
2023-08-07T14:35:01.144Z,28.35
2023-08-07T14:37:28.268Z,28.27
2023-08-07T14:39:55.176Z,28.34
2023-08-07T14:42:22.494Z,28.32
2023-08-07T14:44:49.576Z,27.98
2023-08-07T14:47:16.756Z,27.91
2023-08-07T14:49:44.001Z,28.01
2023-08-07T14:52:11.195Z,28.15
2023-08-07T14:54:38.397Z,27.92
2023-08-07T14:57:05.829Z,28.17
2023-08-07T14:59:36.091Z,28.17
2023-08-07T15:02:03.572Z,28.24
2023-08-07T15:04:30.779Z,28.13
2023-08-07T15:06:57.923Z,28.10
2023-08-07T15:09:25.644Z,28.07
2023-08-07T15:11:52.947Z,27.85
2023-08-07T15:14:20.023Z,28.01
2023-08-07T15:16:47.109Z,27.92
2023-08-07T15:19:14.313Z,28.05
2023-08-07T15:21:41.471Z,27.76
2023-08-07T15:24:08.688Z,27.97
2023-08-07T15:26:36.069Z,27.63
2023-08-07T15:29:06.025Z,27.57
2023-08-07T15:31:33.644Z,27.73
2023-08-07T15:34:01.103Z,27.51
2023-08-07T15:36:28.163Z,27.71
2023-08-07T15:38:55.249Z,27.90
2023-08-07T15:41:22.756Z,27.84
2023-08-07T15:43:52.984Z,27.60
2023-08-07T15:46:20.194Z,27.56
2023-08-07T15:48:47.594Z,27.39
2023-08-07T15:51:14.851Z,27.14
2023-08-07T15:53:41.956Z,26.98
2023-08-07T15:56:09.222Z,26.74
2023-08-07T15:58:37.757Z,26.86
2023-08-07T16:01:04.994Z,26.52
2023-08-07T16:03:32.425Z,26.42
2023-08-07T16:06:00.045Z,26.45
2023-08-07T16:08:27.251Z,26.24
2023-08-07T16:10:54.623Z,26.22
2023-08-07T16:13:24.051Z,25.94
2023-08-07T16:15:54.290Z,26.14
2023-08-07T16:18:21.500Z,26.03
2023-08-07T16:20:48.574Z,25.73
2023-08-07T16:23:15.727Z,25.49
2023-08-07T16:25:42.864Z,25.85
2023-08-07T16:28:10.116Z,25.69
2023-08-07T16:30:37.404Z,25.48
2023-08-07T16:33:04.882Z,25.55
2023-08-07T16:35:32.022Z,25.40
2023-08-07T16:37:59.207Z,25.33
2023-08-07T16:40:26.340Z,25.04
2023-08-07T16:42:53.381Z,24.85
2023-08-07T16:45:22.792Z,25.10
2023-08-07T16:47:49.900Z,25.06
2023-08-07T16:50:17.311Z,24.72
2023-08-07T16:52:44.465Z,25.03
2023-08-07T16:55:11.648Z,24.81
2023-08-07T16:57:38.768Z,24.99
2023-08-07T17:00:07.556Z,24.92
2023-08-07T17:02:34.792Z,24.39
2023-08-07T17:05:02.073Z,24.80
2023-08-07T17:07:29.174Z,24.34
2023-08-07T17:09:56.489Z,24.76
2023-08-07T17:12:23.687Z,24.71
2023-08-07T17:14:50.914Z,24.74
2023-08-07T17:17:17.998Z,24.85
2023-08-07T17:19:45.044Z,24.60
2023-08-07T17:22:12.471Z,24.76
2023-08-07T17:24:39.718Z,24.58
2023-08-07T17:27:07.086Z,24.32
2023-08-07T17:29:34.223Z,24.30
2023-08-07T17:32:01.399Z,24.07
2023-08-07T17:34:28.550Z,24.45
2023-08-07T17:36:55.683Z,24.03
2023-08-07T17:39:23.057Z,24.45
2023-08-07T17:41:50.432Z,24.43
2023-08-07T17:44:18.404Z,24.14
2023-08-07T17:46:45.708Z,24.25
2023-08-07T17:49:14.053Z,24.49
2023-08-07T17:51:41.302Z,24.47
2023-08-07T17:54:08.576Z,24.44
2023-08-07T17:56:37.319Z,24.50
2023-08-07T17:59:04.614Z,24.25
2023-08-07T18:01:31.977Z,24.43
2023-08-07T18:04:02.294Z,24.25
2023-08-07T18:06:30.277Z,24.36
2023-08-07T18:08:58.293Z,24.35
2023-08-07T18:11:25.356Z,24.50
2023-08-07T18:13:52.661Z,24.44
2023-08-07T18:16:20.065Z,24.40
2023-08-07T18:18:47.268Z,24.17
2023-08-07T18:21:14.349Z,24.26
2023-08-07T18:23:41.699Z,24.23
2023-08-07T18:26:08.927Z,24.28
2023-08-07T18:28:36.171Z,24.19
2023-08-07T18:31:03.731Z,23.71
2023-08-07T18:33:30.914Z,23.90
2023-08-07T18:36:01.161Z,23.76
2023-08-07T18:38:28.916Z,23.88
2023-08-07T18:40:56.052Z,23.73
2023-08-07T18:43:23.213Z,23.94
2023-08-07T18:45:50.365Z,23.66
2023-08-07T18:48:18.088Z,23.53
2023-08-07T18:50:45.420Z,23.67
2023-08-07T18:53:12.671Z,23.46
2023-08-07T18:55:39.722Z,23.41
2023-08-07T18:58:07.065Z,23.16
2023-08-07T19:00:34.246Z,22.95
2023-08-07T19:03:01.560Z,22.80
2023-08-07T19:05:28.765Z,22.43
2023-08-07T19:07:56.025Z,22.55
2023-08-07T19:10:23.482Z,22.58
2023-08-07T19:12:51.262Z,22.50
2023-08-07T19:15:18.509Z,22.52
2023-08-07T19:17:45.822Z,22.60
2023-08-07T19:20:13.325Z,22.57
2023-08-07T19:22:40.888Z,22.56
2023-08-07T19:25:08.762Z,22.58
2023-08-07T19:27:35.911Z,22.09
2023-08-07T19:30:03.069Z,22.28
2023-08-07T19:32:30.307Z,22.45
2023-08-07T19:34:57.582Z,22.35
2023-08-07T19:39:52.765Z,22.48
2023-08-07T19:42:19.856Z,22.40
2023-08-07T19:44:47.860Z,22.17
2023-08-07T19:47:25.893Z,22.13
2023-08-07T19:50:03.358Z,22.04
2023-08-07T19:52:30.509Z,21.84
2023-08-07T19:54:57.567Z,21.88
2023-08-07T19:57:25.912Z,21.91
2023-08-07T19:59:52.961Z,21.95
2023-08-07T20:02:20.077Z,21.66
2023-08-07T20:04:48.501Z,21.81
2023-08-07T20:07:15.621Z,21.89
2023-08-07T20:09:43.129Z,21.79
2023-08-07T20:12:10.820Z,21.83
2023-08-07T20:14:38.149Z,21.72
2023-08-07T20:17:06.238Z,21.81
2023-08-07T20:19:34.110Z,21.89
2023-08-07T20:22:02.082Z,21.93
2023-08-07T20:24:29.779Z,22.00
2023-08-07T20:26:58.336Z,21.83
2023-08-07T20:29:26.231Z,21.99
2023-08-07T20:31:53.644Z,21.68
2023-08-07T20:34:20.992Z,21.65
2023-08-07T20:36:48.400Z,21.92
2023-08-07T20:39:15.549Z,21.87
2023-08-07T20:41:42.619Z,21.65
2023-08-07T20:44:09.763Z,21.70
2023-08-07T20:46:36.917Z,21.82
2023-08-07T20:49:04.177Z,21.73
2023-08-07T20:51:33.196Z,21.79
2023-08-07T20:54:00.519Z,21.55
2023-08-07T20:56:27.720Z,21.70
2023-08-07T20:58:54.841Z,21.73
2023-08-07T21:01:22.018Z,21.66
2023-08-07T21:03:49.157Z,21.44
2023-08-07T21:06:16.134Z,21.30
2023-08-07T21:08:43.256Z,20.82
2023-08-07T21:11:10.229Z,21.25
2023-08-07T21:13:39.210Z,21.18
2023-08-07T21:16:06.754Z,21.13
2023-08-07T21:18:33.912Z,21.08
2023-08-07T21:21:01.277Z,20.76
2023-08-07T21:23:28.646Z,21.01
2023-08-07T21:25:55.725Z,20.55
2023-08-07T21:28:22.938Z,20.81
2023-08-07T21:30:50.953Z,20.90
2023-08-07T21:33:18.004Z,20.86
2023-08-07T21:35:45.134Z,20.87
2023-08-07T21:38:12.292Z,20.41
2023-08-07T21:40:40.082Z,20.55
2023-08-07T21:43:07.334Z,20.62
2023-08-07T21:45:34.694Z,20.55
2023-08-07T21:48:01.869Z,20.41
2023-08-07T21:50:28.946Z,20.11
2023-08-07T21:52:56.001Z,20.40
2023-08-07T21:55:23.061Z,20.41
2023-08-07T21:57:50.258Z,20.03
2023-08-07T22:00:17.499Z,19.91
2023-08-07T22:02:47.641Z,19.88
2023-08-07T22:05:14.928Z,19.82
2023-08-07T22:07:42.072Z,19.84
2023-08-07T22:10:10.071Z,19.79
2023-08-07T22:12:37.344Z,19.94
2023-08-07T22:15:05.322Z,20.01
2023-08-07T22:17:32.578Z,19.53
2023-08-07T22:20:05.573Z,19.31
2023-08-07T22:22:33.581Z,19.34
2023-08-07T22:25:00.579Z,19.93
2023-08-07T22:27:27.705Z,19.55
2023-08-07T22:29:54.801Z,19.89
2023-08-07T22:32:21.975Z,19.65
2023-08-07T22:34:49.055Z,19.76
2023-08-07T22:37:16.097Z,19.61
2023-08-07T22:39:43.198Z,19.33
2023-08-07T22:42:10.429Z,19.64
2023-08-07T22:44:37.544Z,19.57
2023-08-07T22:47:04.885Z,19.61
2023-08-07T22:49:31.975Z,19.46
2023-08-07T22:51:59.297Z,19.34
2023-08-07T22:54:26.768Z,19.56
2023-08-07T22:56:53.802Z,19.57
2023-08-07T22:59:23.543Z,19.36
2023-08-07T23:01:50.718Z,19.50
2023-08-07T23:04:17.905Z,19.23
2023-08-07T23:06:45.191Z,19.38
2023-08-07T23:09:12.463Z,19.43
2023-08-07T23:11:40.217Z,19.27
2023-08-07T23:14:07.325Z,19.13
2023-08-07T23:16:34.360Z,19.40
2023-08-07T23:19:01.384Z,19.38
2023-08-07T23:21:28.635Z,19.30
2023-08-07T23:23:56.056Z,19.32
2023-08-07T23:26:23.249Z,19.19
2023-08-07T23:28:50.410Z,19.30
2023-08-07T23:31:17.596Z,19.44
2023-08-07T23:33:44.726Z,19.15
2023-08-07T23:36:11.940Z,19.26
2023-08-07T23:38:39.102Z,19.07
2023-08-07T23:41:06.363Z,19.18
2023-08-07T23:43:34.462Z,18.91
2023-08-07T23:46:02.940Z,19.06
2023-08-07T23:48:30.064Z,19.13
2023-08-07T23:50:57.270Z,19.16
2023-08-07T23:53:24.639Z,18.97
2023-08-07T23:55:51.889Z,18.92
2023-08-07T23:58:20.413Z,18.93
